sensor_id;sensor_type;location;lat;lon;timestamp;pressure;altitude;pressure_sealevel;temperature;humidity
50268;BME280;36153;50.960;6.220;2022-08-16T00:01:55;99653.50;;;23.45;55.46
50268;BME280;36153;50.960;6.220;2022-08-16T00:04:55;99651.38;;;23.35;55.66
50268;BME280;36153;50.960;6.220;2022-08-16T00:07:56;99652.31;;;23.34;55.51
50268;BME280;36153;50.960;6.220;2022-08-16T00:10:58;99657.13;;;23.44;55.24
50268;BME280;36153;50.960;6.220;2022-08-16T00:13:58;99658.16;;;23.41;55.17
50268;BME280;36153;50.960;6.220;2022-08-16T00:16:59;99657.28;;;23.41;55.00
50268;BME280;36153;50.960;6.220;2022-08-16T00:19:59;99659.94;;;23.41;55.22
50268;BME280;36153;50.960;6.220;2022-08-16T00:23:00;99653.88;;;23.39;55.19
50268;BME280;36153;50.960;6.220;2022-08-16T00:26:00;99660.19;;;23.36;55.21
50268;BME280;36153;50.960;6.220;2022-08-16T00:29:00;99659.19;;;23.39;55.36
50268;BME280;36153;50.960;6.220;2022-08-16T00:32:03;99665.69;;;23.33;55.13
50268;BME280;36153;50.960;6.220;2022-08-16T00:35:06;99666.72;;;23.30;55.44
50268;BME280;36153;50.960;6.220;2022-08-16T00:38:07;99671.22;;;23.28;55.25
50268;BME280;36153;50.960;6.220;2022-08-16T00:41:08;99676.72;;;23.25;55.37
50268;BME280;36153;50.960;6.220;2022-08-16T00:44:09;99677.81;;;23.21;55.54
50268;BME280;36153;50.960;6.220;2022-08-16T00:47:15;99676.13;;;23.20;55.54
50268;BME280;36153;50.960;6.220;2022-08-16T00:50:24;99675.44;;;23.16;55.58
50268;BME280;36153;50.960;6.220;2022-08-16T00:53:24;99688.63;;;23.18;55.49
50268;BME280;36153;50.960;6.220;2022-08-16T00:56:29;99679.72;;;23.19;55.69
50268;BME280;36153;50.960;6.220;2022-08-16T00:59:33;99685.34;;;23.13;55.80
50268;BME280;36153;50.960;6.220;2022-08-16T01:02:34;99683.66;;;23.12;55.68
50268;BME280;36153;50.960;6.220;2022-08-16T01:05:36;99688.78;;;23.15;55.99
50268;BME280;36153;50.960;6.220;2022-08-16T01:08:37;99682.06;;;23.08;56.11
50268;BME280;36153;50.960;6.220;2022-08-16T01:11:39;99680.03;;;23.13;55.84
50268;BME280;36153;50.960;6.220;2022-08-16T01:14:44;99679.88;;;23.16;55.79
50268;BME280;36153;50.960;6.220;2022-08-16T01:17:46;99684.50;;;23.12;56.33
50268;BME280;36153;50.960;6.220;2022-08-16T01:20:59;99676.59;;;23.11;55.87
50268;BME280;36153;50.960;6.220;2022-08-16T01:24:07;99681.75;;;23.14;56.13
50268;BME280;36153;50.960;6.220;2022-08-16T01:27:15;99679.91;;;22.98;56.25
50268;BME280;36153;50.960;6.220;2022-08-16T01:30:21;99682.63;;;22.97;56.67
50268;BME280;36153;50.960;6.220;2022-08-16T01:33:23;99678.97;;;22.99;56.52
50268;BME280;36153;50.960;6.220;2022-08-16T01:36:24;99681.00;;;22.94;56.77
50268;BME280;36153;50.960;6.220;2022-08-16T01:39:24;99675.84;;;22.91;57.18
50268;BME280;36153;50.960;6.220;2022-08-16T01:42:25;99675.22;;;22.86;56.83
50268;BME280;36153;50.960;6.220;2022-08-16T01:45:25;99674.38;;;22.86;57.14
50268;BME280;36153;50.960;6.220;2022-08-16T01:48:28;99676.50;;;22.79;56.97
50268;BME280;36153;50.960;6.220;2022-08-16T01:51:30;99675.78;;;22.75;57.26
50268;BME280;36153;50.960;6.220;2022-08-16T01:54:30;99672.91;;;22.80;57.22
50268;BME280;36153;50.960;6.220;2022-08-16T01:57:31;99680.09;;;22.78;57.32
50268;BME280;36153;50.960;6.220;2022-08-16T02:00:32;99675.56;;;22.80;57.01
50268;BME280;36153;50.960;6.220;2022-08-16T02:03:32;99672.53;;;22.70;57.36
50268;BME280;36153;50.960;6.220;2022-08-16T02:06:33;99677.91;;;22.68;57.47
50268;BME280;36153;50.960;6.220;2022-08-16T02:09:35;99674.47;;;22.66;57.74
50268;BME280;36153;50.960;6.220;2022-08-16T02:12:36;99676.28;;;22.66;57.67
50268;BME280;36153;50.960;6.220;2022-08-16T02:15:37;99682.19;;;22.71;57.25
50268;BME280;36153;50.960;6.220;2022-08-16T02:18:40;99678.59;;;22.72;57.41
50268;BME280;36153;50.960;6.220;2022-08-16T02:21:40;99681.34;;;22.71;57.40
50268;BME280;36153;50.960;6.220;2022-08-16T02:24:41;99674.22;;;22.71;57.55
50268;BME280;36153;50.960;6.220;2022-08-16T02:27:43;99670.47;;;22.75;57.31
50268;BME280;36153;50.960;6.220;2022-08-16T02:30:44;99667.06;;;22.73;57.49
50268;BME280;36153;50.960;6.220;2022-08-16T02:33:45;99664.63;;;22.68;57.24
50268;BME280;36153;50.960;6.220;2022-08-16T02:36:46;99664.03;;;22.63;57.66
50268;BME280;36153;50.960;6.220;2022-08-16T02:39:46;99661.94;;;22.70;57.72
50268;BME280;36153;50.960;6.220;2022-08-16T02:42:48;99660.00;;;22.56;57.76
50268;BME280;36153;50.960;6.220;2022-08-16T02:45:48;99659.19;;;22.54;58.11
50268;BME280;36153;50.960;6.220;2022-08-16T02:48:49;99662.66;;;22.56;57.89
50268;BME280;36153;50.960;6.220;2022-08-16T02:51:49;99664.03;;;22.46;58.44
50268;BME280;36153;50.960;6.220;2022-08-16T02:54:50;99671.22;;;22.44;58.37
50268;BME280;36153;50.960;6.220;2022-08-16T02:57:50;99667.63;;;22.45;58.25
50268;BME280;36153;50.960;6.220;2022-08-16T03:00:52;99668.25;;;22.50;58.12
50268;BME280;36153;50.960;6.220;2022-08-16T03:03:54;99669.25;;;22.47;58.27
50268;BME280;36153;50.960;6.220;2022-08-16T03:06:55;99669.19;;;22.49;58.62
50268;BME280;36153;50.960;6.220;2022-08-16T03:09:55;99663.19;;;22.45;58.28
50268;BME280;36153;50.960;6.220;2022-08-16T03:12:56;99662.03;;;22.51;58.35
50268;BME280;36153;50.960;6.220;2022-08-16T03:15:57;99668.81;;;22.57;58.27
50268;BME280;36153;50.960;6.220;2022-08-16T03:18:58;99667.31;;;22.51;58.49
50268;BME280;36153;50.960;6.220;2022-08-16T03:21:58;99681.34;;;22.53;58.44
50268;BME280;36153;50.960;6.220;2022-08-16T03:25:00;99671.78;;;22.50;58.51
50268;BME280;36153;50.960;6.220;2022-08-16T03:28:05;99668.66;;;22.42;58.85
50268;BME280;36153;50.960;6.220;2022-08-16T03:31:06;99666.50;;;22.31;58.91
50268;BME280;36153;50.960;6.220;2022-08-16T03:34:07;99675.00;;;22.21;59.19
50268;BME280;36153;50.960;6.220;2022-08-16T03:37:07;99679.19;;;22.07;59.54
50268;BME280;36153;50.960;6.220;2022-08-16T03:40:09;99682.22;;;22.17;59.42
50268;BME280;36153;50.960;6.220;2022-08-16T03:43:11;99686.28;;;22.07;59.69
50268;BME280;36153;50.960;6.220;2022-08-16T03:46:12;99681.63;;;22.12;59.64
50268;BME280;36153;50.960;6.220;2022-08-16T03:49:12;99683.19;;;22.16;59.03
50268;BME280;36153;50.960;6.220;2022-08-16T03:52:13;99683.19;;;22.16;59.31
50268;BME280;36153;50.960;6.220;2022-08-16T03:55:13;99683.88;;;22.20;59.24
50268;BME280;36153;50.960;6.220;2022-08-16T03:58:14;99687.72;;;22.31;59.11
50268;BME280;36153;50.960;6.220;2022-08-16T04:01:14;99690.28;;;22.33;58.78
50268;BME280;36153;50.960;6.220;2022-08-16T04:04:14;99688.53;;;22.33;58.75
50268;BME280;36153;50.960;6.220;2022-08-16T04:07:15;99699.19;;;22.32;58.72
50268;BME280;36153;50.960;6.220;2022-08-16T04:10:16;99690.81;;;22.22;58.94
50268;BME280;36153;50.960;6.220;2022-08-16T04:13:16;99696.13;;;22.05;59.53
50268;BME280;36153;50.960;6.220;2022-08-16T04:16:16;99698.06;;;22.01;59.74
50268;BME280;36153;50.960;6.220;2022-08-16T04:19:17;99703.28;;;22.03;59.95
50268;BME280;36153;50.960;6.220;2022-08-16T04:22:18;99704.13;;;22.03;60.05
50268;BME280;36153;50.960;6.220;2022-08-16T04:25:19;99708.28;;;22.09;59.61
50268;BME280;36153;50.960;6.220;2022-08-16T04:28:19;99703.00;;;22.09;59.88
50268;BME280;36153;50.960;6.220;2022-08-16T04:31:19;99709.38;;;22.22;59.31
50268;BME280;36153;50.960;6.220;2022-08-16T04:34:20;99714.69;;;22.22;59.12
50268;BME280;36153;50.960;6.220;2022-08-16T04:37:20;99720.06;;;22.21;59.48
50268;BME280;36153;50.960;6.220;2022-08-16T04:40:22;99713.34;;;22.31;59.14
50268;BME280;36153;50.960;6.220;2022-08-16T04:43:24;99717.25;;;22.43;58.51
50268;BME280;36153;50.960;6.220;2022-08-16T04:46:24;99720.81;;;22.42;58.72
50268;BME280;36153;50.960;6.220;2022-08-16T04:49:25;99708.66;;;22.38;58.73
50268;BME280;36153;50.960;6.220;2022-08-16T04:52:25;99714.75;;;22.21;59.26
50268;BME280;36153;50.960;6.220;2022-08-16T04:55:27;99720.72;;;22.26;58.85
50268;BME280;36153;50.960;6.220;2022-08-16T04:58:28;99722.47;;;22.25;58.94
50268;BME280;36153;50.960;6.220;2022-08-16T05:01:30;99720.00;;;22.22;59.52
50268;BME280;36153;50.960;6.220;2022-08-16T05:04:30;99724.59;;;22.19;59.76
50268;BME280;36153;50.960;6.220;2022-08-16T05:07:31;99726.16;;;22.23;59.69
50268;BME280;36153;50.960;6.220;2022-08-16T05:10:31;99723.38;;;22.43;59.08
50268;BME280;36153;50.960;6.220;2022-08-16T05:13:35;99729.09;;;22.53;58.77
50268;BME280;36153;50.960;6.220;2022-08-16T05:16:36;99736.50;;;22.64;58.20
50268;BME280;36153;50.960;6.220;2022-08-16T05:19:37;99743.22;;;22.71;58.51
50268;BME280;36153;50.960;6.220;2022-08-16T05:22:37;99748.91;;;22.81;58.16
50268;BME280;36153;50.960;6.220;2022-08-16T05:25:38;99748.78;;;22.84;58.15
50268;BME280;36153;50.960;6.220;2022-08-16T05:28:39;99745.63;;;22.93;57.57
50268;BME280;36153;50.960;6.220;2022-08-16T05:31:39;99754.03;;;23.01;57.57
50268;BME280;36153;50.960;6.220;2022-08-16T05:34:40;99748.91;;;23.16;57.20
50268;BME280;36153;50.960;6.220;2022-08-16T05:37:40;99747.38;;;23.28;56.78
50268;BME280;36153;50.960;6.220;2022-08-16T05:40:41;99747.38;;;23.28;56.67
50268;BME280;36153;50.960;6.220;2022-08-16T05:43:41;99756.19;;;23.28;57.30
50268;BME280;36153;50.960;6.220;2022-08-16T05:46:42;99761.81;;;23.40;56.68
50268;BME280;36153;50.960;6.220;2022-08-16T05:49:43;99761.47;;;23.46;56.62
50268;BME280;36153;50.960;6.220;2022-08-16T05:52:44;99762.53;;;23.59;56.99
50268;BME280;36153;50.960;6.220;2022-08-16T05:55:44;99771.63;;;23.71;57.11
50268;BME280;36153;50.960;6.220;2022-08-16T05:58:44;99770.63;;;23.90;56.27
50268;BME280;36153;50.960;6.220;2022-08-16T06:01:45;99774.78;;;23.95;56.41
50268;BME280;36153;50.960;6.220;2022-08-16T06:04:45;99775.88;;;24.07;56.40
50268;BME280;36153;50.960;6.220;2022-08-16T06:07:46;99777.94;;;24.18;56.00
50268;BME280;36153;50.960;6.220;2022-08-16T06:10:46;99769.06;;;24.33;55.17
50268;BME280;36153;50.960;6.220;2022-08-16T06:13:46;99767.91;;;24.53;54.85
50268;BME280;36153;50.960;6.220;2022-08-16T06:16:47;99768.09;;;24.50;55.59
50268;BME280;36153;50.960;6.220;2022-08-16T06:19:47;99760.56;;;24.73;54.63
50268;BME280;36153;50.960;6.220;2022-08-16T06:22:48;99762.56;;;25.00;54.02
50268;BME280;36153;50.960;6.220;2022-08-16T06:25:50;99763.59;;;24.97;53.79
50268;BME280;36153;50.960;6.220;2022-08-16T06:28:50;99768.28;;;25.08;52.95
50268;BME280;36153;50.960;6.220;2022-08-16T06:31:51;99770.34;;;25.17;53.01
50268;BME280;36153;50.960;6.220;2022-08-16T06:34:51;99773.50;;;25.24;52.99
50268;BME280;36153;50.960;6.220;2022-08-16T06:37:51;99771.94;;;25.36;52.11
50268;BME280;36153;50.960;6.220;2022-08-16T06:40:52;99778.59;;;25.43;52.66
50268;BME280;36153;50.960;6.220;2022-08-16T06:43:52;99778.59;;;25.43;52.21
50268;BME280;36153;50.960;6.220;2022-08-16T06:46:53;99782.09;;;25.44;52.26
50268;BME280;36153;50.960;6.220;2022-08-16T06:49:53;99790.97;;;25.44;51.86
50268;BME280;36153;50.960;6.220;2022-08-16T06:52:53;99794.19;;;25.35;52.26
50268;BME280;36153;50.960;6.220;2022-08-16T06:55:57;99799.13;;;25.41;52.75
50268;BME280;36153;50.960;6.220;2022-08-16T06:58:57;99807.78;;;25.30;52.67
50268;BME280;36153;50.960;6.220;2022-08-16T07:01:58;99798.84;;;25.60;52.26
50268;BME280;36153;50.960;6.220;2022-08-16T07:04:58;99804.38;;;25.71;51.20
50268;BME280;36153;50.960;6.220;2022-08-16T07:07:59;99806.66;;;25.78;51.40
50268;BME280;36153;50.960;6.220;2022-08-16T07:11:00;99814.16;;;25.85;51.05
50268;BME280;36153;50.960;6.220;2022-08-16T07:14:01;99815.59;;;26.05;50.89
50268;BME280;36153;50.960;6.220;2022-08-16T07:17:01;99821.59;;;25.95;51.00
50268;BME280;36153;50.960;6.220;2022-08-16T07:20:05;99816.72;;;26.16;50.18
50268;BME280;36153;50.960;6.220;2022-08-16T07:23:06;99823.16;;;26.26;49.71
50268;BME280;36153;50.960;6.220;2022-08-16T07:26:12;99820.34;;;26.42;49.99
50268;BME280;36153;50.960;6.220;2022-08-16T07:29:14;99822.34;;;26.38;49.73
50268;BME280;36153;50.960;6.220;2022-08-16T07:32:14;99820.56;;;26.39;49.93
50268;BME280;36153;50.960;6.220;2022-08-16T07:35:14;99825.69;;;26.69;49.32
50268;BME280;36153;50.960;6.220;2022-08-16T07:38:15;99824.75;;;26.70;49.10
50268;BME280;36153;50.960;6.220;2022-08-16T07:41:15;99832.88;;;26.82;49.24
50268;BME280;36153;50.960;6.220;2022-08-16T07:44:15;99826.81;;;26.92;48.89
50268;BME280;36153;50.960;6.220;2022-08-16T07:47:16;99832.72;;;27.11;48.65
50268;BME280;36153;50.960;6.220;2022-08-16T07:50:17;99839.81;;;27.24;48.73
50268;BME280;36153;50.960;6.220;2022-08-16T07:53:18;99832.34;;;27.30;48.71
50268;BME280;36153;50.960;6.220;2022-08-16T07:56:19;99833.34;;;27.54;47.69
50268;BME280;36153;50.960;6.220;2022-08-16T07:59:19;99834.59;;;27.74;46.85
50268;BME280;36153;50.960;6.220;2022-08-16T08:02:20;99833.03;;;27.96;46.41
50268;BME280;36153;50.960;6.220;2022-08-16T08:05:22;99839.16;;;27.72;47.48
50268;BME280;36153;50.960;6.220;2022-08-16T08:08:22;99839.06;;;28.00;45.97
50268;BME280;36153;50.960;6.220;2022-08-16T08:11:23;99830.25;;;28.10;46.79
50268;BME280;36153;50.960;6.220;2022-08-16T08:14:24;99833.28;;;28.54;46.25
50268;BME280;36153;50.960;6.220;2022-08-16T08:17:24;99834.97;;;28.68;46.06
50268;BME280;36153;50.960;6.220;2022-08-16T08:20:24;99828.88;;;28.66;45.23
50268;BME280;36153;50.960;6.220;2022-08-16T08:23:26;99830.25;;;28.72;45.17
50268;BME280;36153;50.960;6.220;2022-08-16T08:26:26;99835.38;;;28.75;45.19
50268;BME280;36153;50.960;6.220;2022-08-16T08:29:27;99845.78;;;28.91;43.95
50268;BME280;36153;50.960;6.220;2022-08-16T08:32:28;99835.69;;;29.30;44.29
50268;BME280;36153;50.960;6.220;2022-08-16T08:35:28;99845.16;;;29.23;43.08
50268;BME280;36153;50.960;6.220;2022-08-16T08:38:29;99853.50;;;29.54;43.62
50268;BME280;36153;50.960;6.220;2022-08-16T08:41:30;99864.84;;;29.69;41.82
50268;BME280;36153;50.960;6.220;2022-08-16T08:44:30;99866.66;;;29.68;42.38
50268;BME280;36153;50.960;6.220;2022-08-16T08:47:31;99857.22;;;29.98;42.50
50268;BME280;36153;50.960;6.220;2022-08-16T08:50:31;99862.25;;;30.46;41.22
50268;BME280;36153;50.960;6.220;2022-08-16T08:53:32;99868.31;;;30.60;41.55
50268;BME280;36153;50.960;6.220;2022-08-16T08:56:34;99865.84;;;30.68;40.20
50268;BME280;36153;50.960;6.220;2022-08-16T08:59:36;99871.13;;;30.91;40.23
50268;BME280;36153;50.960;6.220;2022-08-16T09:02:37;99877.69;;;31.09;40.30
50268;BME280;36153;50.960;6.220;2022-08-16T09:05:37;99872.16;;;30.78;39.51
50268;BME280;36153;50.960;6.220;2022-08-16T09:08:37;99880.16;;;30.57;39.61
50268;BME280;36153;50.960;6.220;2022-08-16T09:11:38;99870.63;;;30.97;39.06
50268;BME280;36153;50.960;6.220;2022-08-16T09:14:41;99873.94;;;31.22;39.18
50268;BME280;36153;50.960;6.220;2022-08-16T09:17:43;99863.25;;;31.53;38.58
50268;BME280;36153;50.960;6.220;2022-08-16T09:20:44;99861.38;;;31.74;38.15
50268;BME280;36153;50.960;6.220;2022-08-16T09:23:45;99862.09;;;31.55;38.17
50268;BME280;36153;50.960;6.220;2022-08-16T09:26:45;99859.44;;;31.34;37.95
50268;BME280;36153;50.960;6.220;2022-08-16T09:29:46;99859.28;;;31.36;37.90
50268;BME280;36153;50.960;6.220;2022-08-16T09:32:46;99863.63;;;31.48;37.82
50268;BME280;36153;50.960;6.220;2022-08-16T09:35:48;99856.06;;;31.94;36.59
50268;BME280;36153;50.960;6.220;2022-08-16T09:38:49;99858.13;;;32.11;36.73
50268;BME280;36153;50.960;6.220;2022-08-16T09:41:50;99857.91;;;32.34;35.67
50268;BME280;36153;50.960;6.220;2022-08-16T09:44:52;99857.78;;;32.45;35.43
50268;BME280;36153;50.960;6.220;2022-08-16T09:47:52;99859.78;;;32.43;35.12
50268;BME280;36153;50.960;6.220;2022-08-16T09:50:54;99856.63;;;32.38;35.92
50268;BME280;36153;50.960;6.220;2022-08-16T09:53:54;99848.72;;;32.66;34.90
50268;BME280;36153;50.960;6.220;2022-08-16T09:56:55;99851.44;;;33.05;33.01
50268;BME280;36153;50.960;6.220;2022-08-16T09:59:55;99854.97;;;33.15;32.88
50268;BME280;36153;50.960;6.220;2022-08-16T10:02:56;99852.69;;;33.11;32.67
50268;BME280;36153;50.960;6.220;2022-08-16T10:05:57;99854.53;;;33.20;33.09
50268;BME280;36153;50.960;6.220;2022-08-16T10:08:58;99851.91;;;33.58;32.58
50268;BME280;36153;50.960;6.220;2022-08-16T10:11:58;99847.00;;;33.43;32.74
50268;BME280;36153;50.960;6.220;2022-08-16T10:15:19;99847.03;;;33.71;31.86
50268;BME280;36153;50.960;6.220;2022-08-16T10:18:19;99847.91;;;33.24;31.83
50268;BME280;36153;50.960;6.220;2022-08-16T10:21:21;99850.13;;;33.39;32.25
50268;BME280;36153;50.960;6.220;2022-08-16T10:24:22;99846.09;;;33.52;31.61
50268;BME280;36153;50.960;6.220;2022-08-16T10:27:22;99843.72;;;33.87;31.75
50268;BME280;36153;50.960;6.220;2022-08-16T10:30:23;99843.69;;;33.97;30.81
50268;BME280;36153;50.960;6.220;2022-08-16T10:33:23;99852.47;;;34.27;30.20
50268;BME280;36153;50.960;6.220;2022-08-16T10:36:23;99852.06;;;34.49;29.44
50268;BME280;36153;50.960;6.220;2022-08-16T10:39:24;99848.97;;;34.62;29.79
50268;BME280;36153;50.960;6.220;2022-08-16T10:42:24;99844.31;;;34.91;29.00
50268;BME280;36153;50.960;6.220;2022-08-16T10:45:25;99851.00;;;35.22;28.37
50268;BME280;36153;50.960;6.220;2022-08-16T10:48:27;99851.91;;;35.05;28.30
50268;BME280;36153;50.960;6.220;2022-08-16T10:51:27;99854.72;;;35.48;27.45
50268;BME280;36153;50.960;6.220;2022-08-16T10:54:28;99866.09;;;34.53;29.20
50268;BME280;36153;50.960;6.220;2022-08-16T10:57:28;99862.00;;;34.67;28.48
50268;BME280;36153;50.960;6.220;2022-08-16T11:00:30;99860.06;;;35.31;26.70
50268;BME280;36153;50.960;6.220;2022-08-16T11:03:32;99861.88;;;34.50;28.33
50268;BME280;36153;50.960;6.220;2022-08-16T11:06:33;99861.84;;;33.67;28.97
50268;BME280;36153;50.960;6.220;2022-08-16T11:09:33;99856.81;;;33.72;29.27
50268;BME280;36153;50.960;6.220;2022-08-16T11:12:34;99863.25;;;34.09;28.40
50268;BME280;36153;50.960;6.220;2022-08-16T11:15:35;99867.50;;;34.01;27.52
50268;BME280;36153;50.960;6.220;2022-08-16T11:18:35;99865.97;;;34.27;27.43
50268;BME280;36153;50.960;6.220;2022-08-16T11:21:35;99865.94;;;35.09;26.59
50268;BME280;36153;50.960;6.220;2022-08-16T11:24:36;99866.56;;;35.20;25.82
50268;BME280;36153;50.960;6.220;2022-08-16T11:27:40;99872.56;;;35.85;24.81
50268;BME280;36153;50.960;6.220;2022-08-16T11:30:40;99862.47;;;36.46;24.75
50268;BME280;36153;50.960;6.220;2022-08-16T11:33:40;99878.13;;;36.85;26.28
50268;BME280;36153;50.960;6.220;2022-08-16T11:36:41;99879.16;;;36.84;24.26
50268;BME280;36153;50.960;6.220;2022-08-16T11:39:41;99867.44;;;36.16;26.04
50268;BME280;36153;50.960;6.220;2022-08-16T11:42:42;99868.56;;;35.00;26.63
50268;BME280;36153;50.960;6.220;2022-08-16T11:45:43;99868.72;;;34.63;26.94
50268;BME280;36153;50.960;6.220;2022-08-16T11:48:44;99873.47;;;34.05;28.26
50268;BME280;36153;50.960;6.220;2022-08-16T11:51:45;99870.84;;;33.38;29.92
50268;BME280;36153;50.960;6.220;2022-08-16T11:54:45;99878.53;;;33.33;30.09
50268;BME280;36153;50.960;6.220;2022-08-16T11:57:46;99885.88;;;33.50;29.27
50268;BME280;36153;50.960;6.220;2022-08-16T12:00:47;99879.53;;;33.89;28.10
50268;BME280;36153;50.960;6.220;2022-08-16T12:03:47;99873.16;;;34.08;27.52
50268;BME280;36153;50.960;6.220;2022-08-16T12:06:48;99890.13;;;34.00;28.47
50268;BME280;36153;50.960;6.220;2022-08-16T12:09:52;99883.56;;;34.03;27.66
50268;BME280;36153;50.960;6.220;2022-08-16T12:12:52;99891.28;;;34.53;27.48
50268;BME280;36153;50.960;6.220;2022-08-16T12:15:53;99877.31;;;35.12;27.61
50268;BME280;36153;50.960;6.220;2022-08-16T12:18:55;99877.72;;;36.04;25.62
50268;BME280;36153;50.960;6.220;2022-08-16T12:21:55;99878.22;;;36.34;25.66
50268;BME280;36153;50.960;6.220;2022-08-16T12:24:56;99880.97;;;36.08;24.72
50268;BME280;36153;50.960;6.220;2022-08-16T12:27:57;99877.75;;;36.64;24.49
50268;BME280;36153;50.960;6.220;2022-08-16T12:30:58;99868.81;;;37.04;23.05
50268;BME280;36153;50.960;6.220;2022-08-16T12:33:58;99873.31;;;37.62;21.95
50268;BME280;36153;50.960;6.220;2022-08-16T12:36:58;99867.28;;;37.02;23.24
50268;BME280;36153;50.960;6.220;2022-08-16T12:40:03;99875.94;;;36.97;22.36
50268;BME280;36153;50.960;6.220;2022-08-16T12:43:05;99872.69;;;37.27;23.19
50268;BME280;36153;50.960;6.220;2022-08-16T12:46:08;99867.94;;;37.20;22.65
50268;BME280;36153;50.960;6.220;2022-08-16T12:49:09;99870.47;;;37.38;21.54
50268;BME280;36153;50.960;6.220;2022-08-16T12:52:10;99862.44;;;37.70;22.88
50268;BME280;36153;50.960;6.220;2022-08-16T12:55:11;99855.28;;;37.85;20.76
50268;BME280;36153;50.960;6.220;2022-08-16T12:58:12;99858.34;;;37.74;23.32
50268;BME280;36153;50.960;6.220;2022-08-16T13:01:13;99857.63;;;37.88;22.35
50268;BME280;36153;50.960;6.220;2022-08-16T13:04:13;99857.41;;;37.42;23.25
50268;BME280;36153;50.960;6.220;2022-08-16T13:07:14;99859.09;;;36.77;22.80
50268;BME280;36153;50.960;6.220;2022-08-16T13:10:15;99866.41;;;36.77;23.66
50268;BME280;36153;50.960;6.220;2022-08-16T13:13:19;99850.63;;;36.55;23.64
50268;BME280;36153;50.960;6.220;2022-08-16T13:16:24;99859.50;;;36.15;24.81
50268;BME280;36153;50.960;6.220;2022-08-16T13:19:24;99859.59;;;35.97;24.90
50268;BME280;36153;50.960;6.220;2022-08-16T13:22:24;99864.00;;;35.37;25.60
50268;BME280;36153;50.960;6.220;2022-08-16T13:25:27;99861.25;;;34.93;26.72
50268;BME280;36153;50.960;6.220;2022-08-16T13:28:27;99866.09;;;34.71;25.58
50268;BME280;36153;50.960;6.220;2022-08-16T13:31:28;99860.72;;;34.89;26.50
50268;BME280;36153;50.960;6.220;2022-08-16T13:34:28;99856.88;;;35.62;25.66
50268;BME280;36153;50.960;6.220;2022-08-16T13:37:28;99865.00;;;35.97;25.61
50268;BME280;36153;50.960;6.220;2022-08-16T13:40:29;99853.47;;;35.95;24.30
50268;BME280;36153;50.960;6.220;2022-08-16T13:43:30;99862.19;;;37.15;23.78
50268;BME280;36153;50.960;6.220;2022-08-16T13:46:31;99858.13;;;37.36;23.44
50268;BME280;36153;50.960;6.220;2022-08-16T13:49:32;99858.09;;;36.70;23.00
50268;BME280;36153;50.960;6.220;2022-08-16T13:52:32;99857.03;;;35.61;25.43
50268;BME280;36153;50.960;6.220;2022-08-16T13:55:33;99864.81;;;35.37;25.20
50268;BME280;36153;50.960;6.220;2022-08-16T13:58:33;99863.25;;;34.91;25.32
50268;BME280;36153;50.960;6.220;2022-08-16T14:01:34;99870.91;;;35.13;25.36
50268;BME280;36153;50.960;6.220;2022-08-16T14:04:37;99872.22;;;35.62;24.79
50268;BME280;36153;50.960;6.220;2022-08-16T14:07:38;99872.22;;;35.88;24.53
50268;BME280;36153;50.960;6.220;2022-08-16T14:10:38;99877.72;;;36.04;23.86
50268;BME280;36153;50.960;6.220;2022-08-16T14:13:40;99870.81;;;36.10;23.68
50268;BME280;36153;50.960;6.220;2022-08-16T14:16:41;99872.16;;;36.65;24.69
50268;BME280;36153;50.960;6.220;2022-08-16T14:19:41;99868.66;;;37.31;24.51
50268;BME280;36153;50.960;6.220;2022-08-16T14:22:42;99861.19;;;37.97;21.99
50268;BME280;36153;50.960;6.220;2022-08-16T14:25:43;99864.97;;;37.71;23.28
50268;BME280;36153;50.960;6.220;2022-08-16T14:28:43;99867.25;;;36.61;22.66
50268;BME280;36153;50.960;6.220;2022-08-16T14:31:45;99864.16;;;36.47;22.82
50268;BME280;36153;50.960;6.220;2022-08-16T14:34:45;99856.25;;;36.70;22.81
50268;BME280;36153;50.960;6.220;2022-08-16T14:37:45;99870.28;;;36.66;23.78
50268;BME280;36153;50.960;6.220;2022-08-16T14:40:46;99858.78;;;36.13;23.77
50268;BME280;36153;50.960;6.220;2022-08-16T14:43:47;99860.50;;;35.79;23.90
50268;BME280;36153;50.960;6.220;2022-08-16T14:46:47;99859.28;;;36.08;23.90
50268;BME280;36153;50.960;6.220;2022-08-16T14:49:47;99853.44;;;35.86;24.28
50268;BME280;36153;50.960;6.220;2022-08-16T14:52:53;99860.94;;;35.93;24.49
50268;BME280;36153;50.960;6.220;2022-08-16T14:55:54;99857.69;;;35.63;24.23
50268;BME280;36153;50.960;6.220;2022-08-16T14:58:55;99862.50;;;35.69;24.65
50268;BME280;36153;50.960;6.220;2022-08-16T15:01:55;99844.13;;;35.54;24.95
50268;BME280;36153;50.960;6.220;2022-08-16T15:04:55;99849.28;;;35.74;24.62
50268;BME280;36153;50.960;6.220;2022-08-16T15:07:57;99841.34;;;36.07;24.33
50268;BME280;36153;50.960;6.220;2022-08-16T15:10:58;99853.31;;;35.96;24.65
50268;BME280;36153;50.960;6.220;2022-08-16T15:13:58;99850.41;;;35.89;24.45
50268;BME280;36153;50.960;6.220;2022-08-16T15:16:58;99852.19;;;35.81;24.36
50268;BME280;36153;50.960;6.220;2022-08-16T15:19:59;99848.16;;;36.19;24.71
50268;BME280;36153;50.960;6.220;2022-08-16T15:23:03;99847.53;;;36.42;24.06
50268;BME280;36153;50.960;6.220;2022-08-16T15:26:04;99845.56;;;36.01;23.97
50268;BME280;36153;50.960;6.220;2022-08-16T15:29:04;99846.53;;;36.35;25.44
50268;BME280;36153;50.960;6.220;2022-08-16T15:32:05;99850.00;;;36.11;24.10
50268;BME280;36153;50.960;6.220;2022-08-16T15:35:07;99853.75;;;36.18;24.13
50268;BME280;36153;50.960;6.220;2022-08-16T15:38:08;99849.84;;;36.20;24.46
50268;BME280;36153;50.960;6.220;2022-08-16T15:41:09;99845.22;;;37.05;23.06
50268;BME280;36153;50.960;6.220;2022-08-16T15:44:18;99856.78;;;37.32;23.03
50268;BME280;36153;50.960;6.220;2022-08-16T15:47:20;99855.72;;;37.33;22.40
50268;BME280;36153;50.960;6.220;2022-08-16T15:50:25;99857.78;;;37.14;22.34
50268;BME280;36153;50.960;6.220;2022-08-16T15:53:25;99857.69;;;36.32;23.91
50268;BME280;36153;50.960;6.220;2022-08-16T15:56:30;99863.72;;;36.09;23.89
50268;BME280;36153;50.960;6.220;2022-08-16T15:59:30;99861.28;;;36.41;23.02